Time;durP1;ratioP1;P1;durP2;ratioP2;P2;SDS_P1;SDS_P2;PMS_P1;PMS_P2;Temp;Humidity;BMP_temperature;BMP_pressure;BME280_temperature;BME280_humidity;BME280_pressure;Samples;Min_cycle;Max_cycle;Signal;HPM_P1;HPM_P2
2022/06/04 00:01:48;;;;;;;;;;;13.40;99.90;;;;;;5071079;28;19912;-74
2022/06/04 00:04:14;;;;;;;;;;;13.40;99.90;;;;;;5070802;28;20324;-74
2022/06/04 00:06:40;;;;;;;;;;;13.40;99.90;;;;;;5071575;28;19908;-74
2022/06/04 00:09:06;;;;;;;;;;;13.40;99.90;;;;;;5071020;28;20195;-74
2022/06/04 00:17:00;;;;;;;;;;;13.40;99.90;;;;;;5084374;28;19996;-74
2022/06/04 00:19:25;;;;;;;;;;;13.40;99.90;;;;;;5090606;28;20061;-74
2022/06/04 00:21:51;;;;;;;;;;;13.40;99.90;;;;;;5090132;28;20392;-74
2022/06/04 00:24:17;;;;;;;;;;;13.30;99.90;;;;;;5078959;28;19908;-74
2022/06/04 00:26:42;;;;;;;;;;;13.30;99.90;;;;;;5083856;28;19912;-74
2022/06/04 00:29:09;;;;;;;;;;;13.40;99.90;;;;;;5075095;28;19981;-74
2022/06/04 00:31:36;;;;;;;;;;;13.40;99.90;;;;;;5074503;28;19913;-74
2022/06/04 00:34:02;;;;;;;;;;;13.30;99.90;;;;;;5074277;28;19912;-74
2022/06/04 00:36:28;;;;;;;;;;;13.20;99.90;;;;;;5075215;28;20273;-74
2022/06/04 00:38:53;;;;;;;;;;;13.20;99.90;;;;;;5074662;28;19915;-74
2022/06/04 00:41:19;;;;;;;;;;;13.20;99.90;;;;;;5074447;28;19913;-74
2022/06/04 00:43:53;;;;;;;;;;;13.10;99.90;;;;;;5074303;28;20429;-74
2022/06/04 00:46:19;;;;;;;;;;;13.00;99.90;;;;;;5074663;28;19908;-74
2022/06/04 00:48:44;;;;;;;;;;;12.90;99.90;;;;;;5074642;28;19920;-74
2022/06/04 00:51:10;;;;;;;;;;;13.00;99.90;;;;;;5074675;28;19908;-74
2022/06/04 00:53:36;;;;;;;;;;;13.00;99.90;;;;;;5079968;28;20008;-74
2022/06/04 00:56:16;;;;;;;;;;;12.90;99.90;;;;;;5076184;28;19915;-74
2022/06/04 00:58:50;;;;;;;;;;;12.80;99.90;;;;;;5074662;28;19916;-74
2022/06/04 01:01:28;;;;;;;;;;;12.70;99.90;;;;;;5087405;28;20376;-74
2022/06/04 01:03:53;;;;;;;;;;;12.90;99.90;;;;;;5093259;28;20376;-74
2022/06/04 01:06:25;;;;;;;;;;;12.90;99.90;;;;;;5093691;28;19908;-74
2022/06/04 01:09:09;;;;;;;;;;;12.90;99.90;;;;;;5093487;28;19919;-74
2022/06/04 01:12:10;;;;;;;;;;;12.80;99.90;;;;;;5092990;28;19999;-74
2022/06/04 01:14:51;;;;;;;;;;;12.90;99.90;;;;;;5083537;28;19909;-74
2022/06/04 01:17:32;;;;;;;;;;;12.80;99.90;;;;;;5074359;28;19909;-74
2022/06/04 01:20:06;;;;;;;;;;;12.70;99.90;;;;;;5074479;28;20281;-74
2022/06/04 01:22:41;;;;;;;;;;;12.80;99.90;;;;;;5083085;28;19916;-74
2022/06/04 01:25:15;;;;;;;;;;;12.80;99.90;;;;;;5079982;28;19908;-74
2022/06/04 01:27:45;;;;;;;;;;;12.80;99.90;;;;;;5072755;28;19915;-74
2022/06/04 01:30:17;;;;;;;;;;;12.90;99.90;;;;;;5074045;28;20326;-74
2022/06/04 01:32:42;;;;;;;;;;;13.10;99.90;;;;;;5073518;28;19913;-74
2022/06/04 01:35:26;;;;;;;;;;;13.20;99.90;;;;;;5072929;28;19909;-74
2022/06/04 01:37:55;;;;;;;;;;;13.10;99.90;;;;;;5074107;28;20065;-74
2022/06/04 01:41:06;;;;;;;;;;;13.10;99.90;;;;;;5073541;28;19908;-74
2022/06/04 01:43:12;;;;;;;;;;;13.00;99.90;;;;;;5081674;28;19912;-74
2022/06/04 01:45:40;;;;;;;;;;;13.00;99.90;;;;;;5092991;28;19909;-74
2022/06/04 01:48:06;;;;;;;;;;;13.00;99.90;;;;;;5093032;28;19915;-74
2022/06/04 01:50:35;;;;;;;;;;;13.00;99.90;;;;;;5092862;28;20293;-74
2022/06/04 01:53:02;;;;;;;;;;;12.80;99.90;;;;;;5085784;28;19908;-74
2022/06/04 01:55:34;;;;;;;;;;;12.70;99.90;;;;;;5082732;28;19912;-74
2022/06/04 01:58:08;;;;;;;;;;;12.60;99.90;;;;;;5080737;28;19908;-74
2022/06/04 02:00:40;;;;;;;;;;;12.70;99.90;;;;;;5079249;28;19909;-74
2022/06/04 02:03:09;;;;;;;;;;;12.60;99.90;;;;;;5071004;28;20404;-74
2022/06/04 02:05:38;;;;;;;;;;;12.50;99.90;;;;;;5078803;28;19909;-74
2022/06/04 02:08:05;;;;;;;;;;;12.40;99.90;;;;;;5073730;28;19908;-74
2022/06/04 02:10:32;;;;;;;;;;;12.50;99.90;;;;;;5073309;28;19912;-74
2022/06/04 02:13:00;;;;;;;;;;;12.60;99.90;;;;;;5072554;28;19944;-74
2022/06/04 02:15:30;;;;;;;;;;;12.50;99.90;;;;;;5072532;28;19908;-74
2022/06/04 02:17:57;;;;;;;;;;;12.40;99.90;;;;;;5072968;28;19952;-74
2022/06/04 02:20:24;;;;;;;;;;;12.40;99.90;;;;;;5072681;28;19909;-74
2022/06/04 02:22:50;;;;;;;;;;;12.40;99.90;;;;;;5072308;28;19920;-74
2022/06/04 02:25:16;;;;;;;;;;;12.40;99.90;;;;;;5072356;28;20000;-74
2022/06/04 02:27:43;;;;;;;;;;;12.40;99.90;;;;;;5073065;28;19999;-74
2022/06/04 02:30:09;;;;;;;;;;;12.50;99.90;;;;;;5072760;28;19912;-74
2022/06/04 02:32:58;;;;;;;;;;;12.60;99.90;;;;;;5072240;28;19909;-74
2022/06/04 02:35:30;;;;;;;;;;;12.70;99.90;;;;;;5079083;28;19913;-74
2022/06/04 02:38:07;;;;;;;;;;;12.60;99.90;;;;;;5078839;28;19909;-74
2022/06/04 02:40:38;;;;;;;;;;;12.60;99.90;;;;;;5071303;28;20332;-74
2022/06/04 02:43:22;;;;;;;;;;;12.50;99.90;;;;;;5071849;28;19912;-74
2022/06/04 02:45:50;;;;;;;;;;;12.40;99.90;;;;;;5072358;28;19912;-74
2022/06/04 02:48:28;;;;;;;;;;;12.50;99.90;;;;;;5072354;28;20007;-74
2022/06/04 02:50:57;;;;;;;;;;;12.50;99.90;;;;;;5087151;28;19963;-74
2022/06/04 02:53:23;;;;;;;;;;;12.40;99.90;;;;;;5071246;28;19912;-74
2022/06/04 02:55:52;;;;;;;;;;;12.30;99.90;;;;;;5072096;28;19916;-74
2022/06/04 02:58:19;;;;;;;;;;;12.20;99.90;;;;;;5085288;28;19986;-74
2022/06/04 03:00:46;;;;;;;;;;;12.20;99.90;;;;;;5072334;28;20023;-74
2022/06/04 03:03:13;;;;;;;;;;;12.20;99.90;;;;;;5071035;28;19965;-74
2022/06/04 03:05:49;;;;;;;;;;;12.20;99.90;;;;;;5072833;28;19909;-74
2022/06/04 03:08:14;;;;;;;;;;;12.10;99.90;;;;;;5082188;28;20234;-74
2022/06/04 03:10:40;;;;;;;;;;;12.00;99.90;;;;;;5074319;28;19919;-74
2022/06/04 03:13:06;;;;;;;;;;;12.00;99.90;;;;;;5070939;28;20391;-74
2022/06/04 03:15:31;;;;;;;;;;;11.90;99.90;;;;;;5071865;28;19915;-74
2022/06/04 03:17:57;;;;;;;;;;;11.90;99.90;;;;;;5071778;28;20301;-74
2022/06/04 03:20:23;;;;;;;;;;;12.00;99.90;;;;;;5071949;28;19913;-74
2022/06/04 03:22:49;;;;;;;;;;;12.10;99.90;;;;;;5090704;28;19919;-74
2022/06/04 03:25:15;;;;;;;;;;;12.00;99.90;;;;;;5090724;28;19908;-74
2022/06/04 03:27:40;;;;;;;;;;;12.00;99.90;;;;;;5091157;28;19915;-74
2022/06/04 03:30:07;;;;;;;;;;;12.00;99.90;;;;;;5089924;28;19919;-74
2022/06/04 03:32:32;;;;;;;;;;;12.30;99.90;;;;;;5090800;28;19919;-74
2022/06/04 03:34:58;;;;;;;;;;;12.40;99.90;;;;;;5084032;28;19909;-74
2022/06/04 03:37:23;;;;;;;;;;;12.50;99.90;;;;;;5072508;28;19908;-74
2022/06/04 03:39:50;;;;;;;;;;;12.50;99.90;;;;;;5084300;28;19955;-74
2022/06/04 03:42:15;;;;;;;;;;;12.70;99.90;;;;;;5072764;28;19916;-74
2022/06/04 03:44:46;;;;;;;;;;;12.80;99.90;;;;;;5071144;28;19909;-74
2022/06/04 03:47:12;;;;;;;;;;;12.80;99.90;;;;;;5071658;28;20297;-74
2022/06/04 03:49:37;;;;;;;;;;;12.90;99.90;;;;;;5071158;28;19913;-74
2022/06/04 03:52:03;;;;;;;;;;;12.90;99.90;;;;;;5071158;28;19920;-74
2022/06/04 03:59:57;;;;;;;;;;;12.80;99.90;;;;;;5093403;28;19931;-74
2022/06/04 04:02:22;;;;;;;;;;;12.80;99.90;;;;;;5094466;28;20361;-74
2022/06/04 04:04:48;;;;;;;;;;;12.80;99.90;;;;;;5092830;28;19915;-74
2022/06/04 04:07:14;;;;;;;;;;;12.80;99.90;;;;;;5090574;28;19908;-74
2022/06/04 04:09:40;;;;;;;;;;;12.80;99.90;;;;;;5077569;28;19913;-74
2022/06/04 04:12:06;;;;;;;;;;;12.80;99.90;;;;;;5075064;28;19970;-74
2022/06/04 04:14:31;;;;;;;;;;;12.90;99.90;;;;;;5077769;28;20357;-74
2022/06/04 04:16:56;;;;;;;;;;;13.00;99.90;;;;;;5079483;28;19912;-74
2022/06/04 04:19:26;;;;;;;;;;;13.10;99.90;;;;;;5075333;28;20309;-74
2022/06/04 04:21:51;;;;;;;;;;;13.30;99.90;;;;;;5074340;28;19917;-74
2022/06/04 04:24:17;;;;;;;;;;;13.50;99.90;;;;;;5074410;28;19915;-74
2022/06/04 04:26:43;;;;;;;;;;;13.60;99.90;;;;;;5075090;28;19908;-74
2022/06/04 04:29:09;;;;;;;;;;;13.70;99.90;;;;;;5075079;28;19913;-74
2022/06/04 04:31:35;;;;;;;;;;;13.80;99.90;;;;;;5093943;28;19908;-74
2022/06/04 04:34:01;;;;;;;;;;;13.90;99.90;;;;;;5093806;28;19914;-74
2022/06/04 04:36:30;;;;;;;;;;;14.10;99.90;;;;;;5090888;28;20007;-74
2022/06/04 04:38:56;;;;;;;;;;;14.20;99.90;;;;;;5087293;28;19947;-74
2022/06/04 04:41:22;;;;;;;;;;;14.20;99.90;;;;;;5074661;28;19954;-74
2022/06/04 04:43:48;;;;;;;;;;;14.40;99.90;;;;;;5074042;28;19912;-74
2022/06/04 04:46:14;;;;;;;;;;;14.50;99.90;;;;;;5073405;28;20365;-74
2022/06/04 04:48:40;;;;;;;;;;;14.60;99.90;;;;;;5074623;28;19962;-74
2022/06/04 04:51:05;;;;;;;;;;;14.60;99.90;;;;;;5074405;28;19909;-74
2022/06/04 04:53:31;;;;;;;;;;;14.70;99.90;;;;;;5072271;28;19908;-74
2022/06/04 04:55:57;;;;;;;;;;;14.80;99.90;;;;;;5074533;28;19914;-74
2022/06/04 04:58:22;;;;;;;;;;;14.90;99.90;;;;;;5074583;28;19931;-74
2022/06/04 05:00:48;;;;;;;;;;;14.90;99.90;;;;;;5091776;28;20433;-74
2022/06/04 05:03:13;;;;;;;;;;;14.90;99.90;;;;;;5092990;28;19909;-74
2022/06/04 05:05:39;;;;;;;;;;;15.00;99.90;;;;;;5093482;28;19908;-74
2022/06/04 05:08:05;;;;;;;;;;;15.10;99.90;;;;;;5078700;28;20338;-74
2022/06/04 05:10:31;;;;;;;;;;;15.20;99.90;;;;;;5081998;28;19919;-74
2022/06/04 05:12:57;;;;;;;;;;;15.30;99.90;;;;;;5072469;28;19908;-74
2022/06/04 05:15:22;;;;;;;;;;;15.30;99.90;;;;;;5073537;28;19913;-74
2022/06/04 05:17:48;;;;;;;;;;;15.40;99.90;;;;;;5074222;28;19918;-74
2022/06/04 05:20:13;;;;;;;;;;;15.30;99.90;;;;;;5074287;28;20299;-74
2022/06/04 05:22:39;;;;;;;;;;;15.30;99.90;;;;;;5073892;28;19917;-74
2022/06/04 05:25:05;;;;;;;;;;;15.40;99.90;;;;;;5073275;28;19908;-74
2022/06/04 05:27:30;;;;;;;;;;;15.60;99.90;;;;;;5073918;28;19909;-74
2022/06/04 05:29:56;;;;;;;;;;;15.70;99.90;;;;;;5072492;28;20023;-74
2022/06/04 05:32:22;;;;;;;;;;;15.80;99.90;;;;;;5077005;28;19916;-74
2022/06/04 05:34:47;;;;;;;;;;;15.80;99.90;;;;;;5092467;28;20441;-74
2022/06/04 05:37:13;;;;;;;;;;;16.00;99.90;;;;;;5091499;28;20373;-74
2022/06/04 05:39:39;;;;;;;;;;;16.20;99.90;;;;;;5076932;28;19909;-74
2022/06/04 05:42:05;;;;;;;;;;;16.20;99.90;;;;;;5073374;28;20349;-74
2022/06/04 05:44:30;;;;;;;;;;;16.40;99.90;;;;;;5071476;28;20628;-74
2022/06/04 05:46:57;;;;;;;;;;;16.60;99.90;;;;;;5073651;28;19999;-74
2022/06/04 05:49:22;;;;;;;;;;;16.90;99.90;;;;;;5073480;28;19961;-74
2022/06/04 05:51:49;;;;;;;;;;;16.90;99.90;;;;;;5072773;28;19995;-74
2022/06/04 05:54:15;;;;;;;;;;;16.80;99.90;;;;;;5071140;28;19912;-74
2022/06/04 05:56:42;;;;;;;;;;;16.60;99.90;;;;;;5085813;28;20385;-75
2022/06/04 05:59:09;;;;;;;;;;;16.40;99.90;;;;;;5092772;28;20264;-75
2022/06/04 06:01:38;;;;;;;;;;;16.30;99.90;;;;;;5092497;28;20315;-75
2022/06/04 06:04:04;;;;;;;;;;;16.20;99.90;;;;;;5092215;28;19908;-75
2022/06/04 06:06:31;;;;;;;;;;;15.90;99.90;;;;;;5087241;28;19954;-75
2022/06/04 06:08:57;;;;;;;;;;;15.80;99.90;;;;;;5086617;28;20352;-75
2022/06/04 06:11:23;;;;;;;;;;;15.60;99.90;;;;;;5073360;28;19973;-76
2022/06/04 06:13:49;;;;;;;;;;;15.60;99.90;;;;;;5072288;28;20332;-75
2022/06/04 06:16:16;;;;;;;;;;;15.60;99.90;;;;;;5071944;28;20358;-75
2022/06/04 06:18:42;;;;;;;;;;;15.60;99.90;;;;;;5073018;28;19915;-76
2022/06/04 06:21:08;;;;;;;;;;;15.60;99.90;;;;;;5072514;28;19913;-76
2022/06/04 06:23:34;;;;;;;;;;;15.60;99.90;;;;;;5070047;28;19957;-76
2022/06/04 06:26:11;;;;;;;;;;;15.70;99.90;;;;;;5072803;28;19908;-75
2022/06/04 06:28:37;;;;;;;;;;;15.70;99.90;;;;;;5072838;28;19909;-76
2022/06/04 06:31:03;;;;;;;;;;;15.80;99.90;;;;;;5072696;28;19920;-76
2022/06/04 06:33:29;;;;;;;;;;;15.80;99.90;;;;;;5071524;28;19916;-76
2022/06/04 06:35:55;;;;;;;;;;;15.80;99.90;;;;;;5072395;28;19908;-76
2022/06/04 06:38:21;;;;;;;;;;;15.90;99.90;;;;;;5081533;28;19909;-76
2022/06/04 06:40:46;;;;;;;;;;;15.90;99.90;;;;;;5078235;28;19912;-76
2022/06/04 06:43:12;;;;;;;;;;;16.00;99.90;;;;;;5082608;28;19912;-76
2022/06/04 06:45:37;;;;;;;;;;;16.00;99.90;;;;;;5092144;28;19908;-76
2022/06/04 06:48:03;;;;;;;;;;;16.10;99.90;;;;;;5091652;28;19915;-76
2022/06/04 06:50:28;;;;;;;;;;;16.10;99.90;;;;;;5091526;28;19912;-76
2022/06/04 06:52:54;;;;;;;;;;;16.20;99.90;;;;;;5091228;28;19930;-76
2022/06/04 06:55:20;;;;;;;;;;;16.20;99.90;;;;;;5091054;28;19961;-76
2022/06/04 06:57:46;;;;;;;;;;;16.30;99.90;;;;;;5091792;28;19953;-76
2022/06/04 07:00:12;;;;;;;;;;;16.40;99.90;;;;;;5091718;28;19912;-76
2022/06/04 07:02:37;;;;;;;;;;;16.50;99.90;;;;;;5091227;28;19969;-76
2022/06/04 07:05:03;;;;;;;;;;;16.50;99.90;;;;;;5090972;28;19912;-76
2022/06/04 07:07:29;;;;;;;;;;;16.50;99.90;;;;;;5084041;28;19908;-76
2022/06/04 07:09:54;;;;;;;;;;;16.40;99.90;;;;;;5076186;28;19919;-76
2022/06/04 07:12:20;;;;;;;;;;;16.50;99.90;;;;;;5071528;28;19909;-76
2022/06/04 07:14:46;;;;;;;;;;;16.60;99.90;;;;;;5071625;28;20018;-76
2022/06/04 07:17:11;;;;;;;;;;;16.80;99.90;;;;;;5071913;28;19915;-76
2022/06/04 07:19:37;;;;;;;;;;;17.30;99.90;;;;;;5071703;28;19946;-76
2022/06/04 07:22:03;;;;;;;;;;;17.70;99.90;;;;;;5071126;28;19963;-76
2022/06/04 07:24:28;;;;;;;;;;;18.10;99.90;;;;;;5071179;28;19931;-76
2022/06/04 07:26:54;;;;;;;;;;;18.30;99.90;;;;;;5072083;28;20365;-76
2022/06/04 07:29:20;;;;;;;;;;;18.40;99.90;;;;;;5071571;28;19913;-76
2022/06/04 07:31:46;;;;;;;;;;;18.50;99.90;;;;;;5069795;28;19994;-76
2022/06/04 07:34:11;;;;;;;;;;;18.60;99.90;;;;;;5070200;28;19944;-76
2022/06/04 07:36:39;;;;;;;;;;;18.90;99.90;;;;;;5071614;28;19908;-74
2022/06/04 07:39:06;;;;;;;;;;;19.30;99.90;;;;;;5080340;28;20381;-74
2022/06/04 07:41:32;;;;;;;;;;;19.50;99.90;;;;;;5077790;28;19935;-74
2022/06/04 07:43:58;;;;;;;;;;;19.60;99.90;;;;;;5070880;28;19908;-74
2022/06/04 07:46:25;;;;;;;;;;;20.00;99.90;;;;;;5071567;28;19962;-74
2022/06/04 07:48:50;;;;;;;;;;;19.90;99.90;;;;;;5071437;28;19908;-73
2022/06/04 07:51:16;;;;;;;;;;;19.50;99.90;;;;;;5069472;28;19908;-73
2022/06/04 07:53:41;;;;;;;;;;;19.60;99.90;;;;;;5070801;28;19921;-74
2022/06/04 07:56:08;;;;;;;;;;;20.10;99.90;;;;;;5070937;28;19960;-74
2022/06/04 07:58:34;;;;;;;;;;;22.20;99.90;;;;;;5080193;28;19908;-76
2022/06/04 08:01:01;;;;;;;;;;;24.20;99.90;;;;;;5072273;28;19999;-75
2022/06/04 08:03:27;;;;;;;;;;;25.40;99.90;;;;;;5070471;28;19908;-75
2022/06/04 08:05:52;;;;;;;;;;;24.40;99.90;;;;;;5070902;28;19913;-75
2022/06/04 08:08:18;;;;;;;;;;;22.70;99.90;;;;;;5071291;28;19909;-75
2022/06/04 08:10:47;;;;;;;;;;;22.40;99.90;;;;;;5071255;28;20300;-74
2022/06/04 08:13:31;;;;;;;;;;;21.80;99.90;;;;;;5070264;28;19975;-74
2022/06/04 08:15:58;;;;;;;;;;;21.80;99.90;;;;;;5076775;28;19909;-75
2022/06/04 08:18:24;;;;;;;;;;;24.00;99.90;;;;;;5071177;28;20365;-75
2022/06/04 08:20:49;;;;;;;;;;;23.50;99.90;;;;;;5090029;28;19966;-75
2022/06/04 08:23:15;;;;;;;;;;;23.10;99.90;;;;;;5089623;28;19912;-75
2022/06/04 08:25:47;;;;;;;;;;;25.10;99.90;;;;;;5090426;28;20022;-75
2022/06/04 08:28:15;;;;;;;;;;;25.80;99.90;;;;;;5082040;28;19912;-75
2022/06/04 08:30:41;;;;;;;;;;;25.70;99.90;;;;;;5074275;28;20392;-75
2022/06/04 08:33:06;;;;;;;;;;;24.00;99.90;;;;;;5089329;28;20369;-75
2022/06/04 08:35:32;;;;;;;;;;;23.00;99.90;;;;;;5090104;28;20011;-75
2022/06/04 08:37:57;;;;;;;;;;;24.10;99.90;;;;;;5090609;28;20005;-76
2022/06/04 08:40:29;;;;;;;;;;;25.10;99.90;;;;;;5090432;28;19959;-75
2022/06/04 08:43:15;;;;;;;;;;;26.00;99.90;;;;;;5089767;28;20431;-75
2022/06/04 08:45:41;;;;;;;;;;;26.00;99.90;;;;;;5091753;28;20269;-75
2022/06/04 08:48:13;;;;;;;;;;;27.60;99.90;;;;;;5092621;28;19958;-76
2022/06/04 08:50:38;;;;;;;;;;;28.10;98.30;;;;;;5093747;28;20357;-75
2022/06/04 08:53:04;;;;;;;;;;;27.60;97.70;;;;;;5093299;28;19915;-76
2022/06/04 08:58:29;;;;;;;;;;;27.00;98.20;;;;;;5076825;28;20288;-75
2022/06/04 09:00:54;;;;;;;;;;;28.00;93.90;;;;;;5080193;28;19912;-75
2022/06/04 09:03:20;;;;;;;;;;;27.40;94.80;;;;;;5071853;28;20000;-75
2022/06/04 09:06:09;;;;;;;;;;;27.20;99.30;;;;;;5083993;28;19909;-76
2022/06/04 09:08:38;;;;;;;;;;;25.80;98.20;;;;;;5089075;28;19931;-75
2022/06/04 09:11:10;;;;;;;;;;;25.60;99.90;;;;;;5093663;28;19919;-75
2022/06/04 09:13:41;;;;;;;;;;;25.30;99.90;;;;;;5092676;28;20432;-76
2022/06/04 09:16:14;;;;;;;;;;;26.10;99.90;;;;;;5093578;28;19912;-75
2022/06/04 09:18:41;;;;;;;;;;;27.10;98.80;;;;;;5093728;28;20280;-76
2022/06/04 09:21:09;;;;;;;;;;;27.70;99.90;;;;;;5092852;28;19977;-76
2022/06/04 09:23:34;;;;;;;;;;;28.90;97.30;;;;;;5090766;28;19915;-76
2022/06/04 09:26:03;;;;;;;;;;;28.40;97.50;;;;;;5091727;28;19912;-76
2022/06/04 09:28:29;;;;;;;;;;;28.40;96.50;;;;;;5079844;28;19951;-76
2022/06/04 09:31:17;;;;;;;;;;;27.30;96.90;;;;;;5075156;28;19951;-76
2022/06/04 09:34:03;;;;;;;;;;;26.20;98.60;;;;;;5085993;28;19912;-76
2022/06/04 09:36:31;;;;;;;;;;;25.40;99.40;;;;;;5073152;28;19913;-76
2022/06/04 09:39:00;;;;;;;;;;;25.70;97.90;;;;;;5073700;28;19935;-75
2022/06/04 09:41:27;;;;;;;;;;;25.80;99.90;;;;;;5073245;28;19913;-75
2022/06/04 09:44:05;;;;;;;;;;;25.40;99.70;;;;;;5072834;28;20389;-75
2022/06/04 09:46:31;;;;;;;;;;;24.40;99.90;;;;;;5073620;28;19908;-75
2022/06/04 09:48:58;;;;;;;;;;;24.30;99.90;;;;;;5073317;28;19908;-76
2022/06/04 09:51:25;;;;;;;;;;;23.90;99.90;;;;;;5072822;28;19908;-76
2022/06/04 09:53:54;;;;;;;;;;;24.50;99.90;;;;;;5072761;28;19966;-75
2022/06/04 09:56:34;;;;;;;;;;;24.10;99.90;;;;;;5070640;28;20003;-76
2022/06/04 09:59:17;;;;;;;;;;;24.00;99.90;;;;;;5081543;28;19955;-75
2022/06/04 10:01:51;;;;;;;;;;;23.70;99.90;;;;;;5072827;28;20227;-75
2022/06/04 10:04:17;;;;;;;;;;;23.20;99.90;;;;;;5072520;28;20201;-75
2022/06/04 10:06:42;;;;;;;;;;;22.70;99.90;;;;;;5072933;28;20385;-75
2022/06/04 10:12:03;;;;;;;;;;;22.50;99.90;;;;;;5073041;28;20554;-75
2022/06/04 10:14:37;;;;;;;;;;;23.10;99.90;;;;;;5072422;28;19909;-75
2022/06/04 10:17:05;;;;;;;;;;;23.00;99.90;;;;;;5072961;28;20317;-75
2022/06/04 10:19:31;;;;;;;;;;;22.40;99.90;;;;;;5072343;28;19908;-75
2022/06/04 10:22:04;;;;;;;;;;;22.30;99.90;;;;;;5085712;28;19923;-75
2022/06/04 10:24:31;;;;;;;;;;;21.70;99.90;;;;;;5072082;28;20395;-75
2022/06/04 10:27:00;;;;;;;;;;;21.20;99.90;;;;;;5072815;28;19916;-75
2022/06/04 10:29:26;;;;;;;;;;;21.10;99.90;;;;;;5072626;28;20362;-75
2022/06/04 10:32:02;;;;;;;;;;;21.30;99.90;;;;;;5071978;28;19909;-76
2022/06/04 10:34:37;;;;;;;;;;;21.60;99.90;;;;;;5072010;28;19908;-76
2022/06/04 10:37:02;;;;;;;;;;;21.60;99.90;;;;;;5072458;28;19913;-75
2022/06/04 10:39:31;;;;;;;;;;;21.40;99.90;;;;;;5072492;28;19909;-75
2022/06/04 10:42:01;;;;;;;;;;;21.20;99.90;;;;;;5070670;28;19909;-75
2022/06/04 10:44:33;;;;;;;;;;;21.00;99.90;;;;;;5073391;28;19908;-75
2022/06/04 10:47:13;;;;;;;;;;;20.70;99.90;;;;;;5091640;28;19908;-75
2022/06/04 10:49:39;;;;;;;;;;;20.60;99.90;;;;;;5089130;28;20441;-75
2022/06/04 10:52:28;;;;;;;;;;;20.80;99.90;;;;;;5076941;28;19955;-76
2022/06/04 10:55:00;;;;;;;;;;;20.80;99.90;;;;;;5068102;28;20331;-75
2022/06/04 10:57:29;;;;;;;;;;;20.70;99.90;;;;;;5078170;28;20288;-76
2022/06/04 10:59:55;;;;;;;;;;;20.70;99.90;;;;;;5077225;28;20404;-76
2022/06/04 11:02:23;;;;;;;;;;;20.70;99.90;;;;;;5071540;28;19909;-75
2022/06/04 11:04:57;;;;;;;;;;;20.90;99.90;;;;;;5071489;28;20285;-76
2022/06/04 11:07:35;;;;;;;;;;;21.70;99.90;;;;;;5071554;28;20510;-76
2022/06/04 11:10:03;;;;;;;;;;;21.60;99.90;;;;;;5071990;28;19912;-76
2022/06/04 11:12:38;;;;;;;;;;;21.80;99.90;;;;;;5071373;28;19913;-76
2022/06/04 11:15:10;;;;;;;;;;;21.40;99.90;;;;;;5071340;28;20293;-76
2022/06/04 11:17:55;;;;;;;;;;;21.10;99.90;;;;;;5071650;28;19909;-76
2022/06/04 11:20:27;;;;;;;;;;;21.00;99.90;;;;;;5071833;28;19912;-75
2022/06/04 11:23:14;;;;;;;;;;;20.80;99.90;;;;;;5088931;28;19916;-76
2022/06/04 11:25:42;;;;;;;;;;;21.10;99.90;;;;;;5084541;28;19912;-76
2022/06/04 11:28:10;;;;;;;;;;;21.00;99.90;;;;;;5076069;28;19908;-76
2022/06/04 11:30:48;;;;;;;;;;;20.90;99.90;;;;;;5079902;28;19912;-76
2022/06/04 11:33:22;;;;;;;;;;;20.80;99.90;;;;;;5083503;28;19908;-75
2022/06/04 11:35:50;;;;;;;;;;;20.80;99.90;;;;;;5090961;28;19948;-76
2022/06/04 11:38:16;;;;;;;;;;;20.80;99.90;;;;;;5090777;28;19908;-75
2022/06/04 11:41:00;;;;;;;;;;;20.90;99.90;;;;;;5090738;28;19908;-75
2022/06/04 11:43:43;;;;;;;;;;;20.90;99.90;;;;;;5090016;28;19919;-75
2022/06/04 11:46:21;;;;;;;;;;;21.10;99.90;;;;;;5090573;28;19909;-75
2022/06/04 11:48:46;;;;;;;;;;;21.40;99.90;;;;;;5076641;28;19909;-74
2022/06/04 11:51:21;;;;;;;;;;;22.10;99.90;;;;;;5071095;28;20415;-74
2022/06/04 11:53:52;;;;;;;;;;;22.10;99.90;;;;;;5084087;28;19908;-74
2022/06/04 11:56:20;;;;;;;;;;;21.60;99.90;;;;;;5091242;28;19908;-76
2022/06/04 11:58:46;;;;;;;;;;;21.60;99.90;;;;;;5078479;28;19909;-76
2022/06/04 12:01:17;;;;;;;;;;;21.30;99.90;;;;;;5082014;28;19961;-76
2022/06/04 12:03:46;;;;;;;;;;;21.30;99.90;;;;;;5070557;28;20578;-75
2022/06/04 12:06:21;;;;;;;;;;;21.20;99.90;;;;;;5071132;28;19909;-76
2022/06/04 12:09:19;;;;;;;;;;;21.60;99.90;;;;;;5071216;28;20545;-76
2022/06/04 12:11:47;;;;;;;;;;;21.90;99.90;;;;;;5049817;28;19916;-76
2022/06/04 12:14:16;;;;;;;;;;;22.00;99.90;;;;;;5089838;28;19912;-76
2022/06/04 12:16:50;;;;;;;;;;;22.30;99.90;;;;;;5090548;28;19908;-76
2022/06/04 12:24:15;;;;;;;;;;;23.80;99.90;;;;;;5090561;28;19916;-77
2022/06/04 12:25:14;;;;;;;;;;;26.10;99.90;;;;;;5093885;28;19915;-77
2022/06/04 12:27:54;;;;;;;;;;;25.20;99.90;;;;;;5089030;28;19955;-76
2022/06/04 12:30:30;;;;;;;;;;;24.20;99.90;;;;;;5078814;28;19913;-76
2022/06/04 12:32:56;;;;;;;;;;;24.80;99.90;;;;;;5074557;28;19920;-76
2022/06/04 12:35:22;;;;;;;;;;;26.10;99.90;;;;;;5074550;28;19909;-76
2022/06/04 12:37:58;;;;;;;;;;;28.40;99.90;;;;;;5074894;28;19916;-76
2022/06/04 12:40:24;;;;;;;;;;;30.70;94.90;;;;;;5088131;28;19934;-76
2022/06/04 12:43:08;;;;;;;;;;;31.30;91.30;;;;;;5074354;28;20373;-77
2022/06/04 12:45:36;;;;;;;;;;;29.50;90.80;;;;;;5089964;28;19908;-77
2022/06/04 12:48:01;;;;;;;;;;;31.30;91.70;;;;;;5094375;28;19915;-77
2022/06/04 12:50:31;;;;;;;;;;;31.20;87.60;;;;;;5094286;28;20285;-79
2022/06/04 12:53:06;;;;;;;;;;;30.90;85.40;;;;;;5093506;28;19915;-78
2022/06/04 12:55:36;;;;;;;;;;;28.70;90.80;;;;;;5094396;28;19908;-77
2022/06/04 12:58:02;;;;;;;;;;;30.20;87.70;;;;;;5084245;28;20277;-77
2022/06/04 13:00:27;;;;;;;;;;;31.20;81.00;;;;;;5085715;28;19909;-77
2022/06/04 13:02:55;;;;;;;;;;;31.60;85.90;;;;;;5074172;28;19909;-76
2022/06/04 13:05:28;;;;;;;;;;;32.30;81.00;;;;;;5074396;28;19915;-76
2022/06/04 13:08:20;;;;;;;;;;;31.80;79.20;;;;;;5074308;28;20022;-77
2022/06/04 13:10:55;;;;;;;;;;;32.90;78.40;;;;;;5088073;28;19962;-76
2022/06/04 13:13:20;;;;;;;;;;;31.40;77.50;;;;;;5085359;28;20015;-77
2022/06/04 13:15:52;;;;;;;;;;;32.30;78.40;;;;;;5093673;28;20348;-77
2022/06/04 13:18:23;;;;;;;;;;;32.90;82.40;;;;;;5092568;28;19914;-76
2022/06/04 13:20:56;;;;;;;;;;;30.60;78.90;;;;;;5093561;28;19951;-77
2022/06/04 13:23:42;;;;;;;;;;;30.40;83.10;;;;;;5092394;28;19965;-77
2022/06/04 13:26:08;;;;;;;;;;;30.90;83.20;;;;;;5093168;28;19916;-77
2022/06/04 13:28:35;;;;;;;;;;;31.70;79.90;;;;;;5085913;28;19908;-77
2022/06/04 13:31:01;;;;;;;;;;;32.90;76.80;;;;;;5079684;28;19956;-77
2022/06/04 13:33:26;;;;;;;;;;;31.80;76.50;;;;;;5071281;28;19908;-78
2022/06/04 13:35:54;;;;;;;;;;;32.50;74.00;;;;;;5073943;28;19916;-79
2022/06/04 13:38:23;;;;;;;;;;;32.60;76.00;;;;;;5072326;28;20325;-77
2022/06/04 13:40:56;;;;;;;;;;;33.60;72.80;;;;;;5073926;28;19908;-77
2022/06/04 13:43:21;;;;;;;;;;;32.80;77.40;;;;;;5072862;28;19915;-77
2022/06/04 13:45:47;;;;;;;;;;;31.20;74.00;;;;;;5073603;28;19908;-76
2022/06/04 13:48:23;;;;;;;;;;;29.30;80.90;;;;;;5073807;28;19986;-78
2022/06/04 13:50:55;;;;;;;;;;;26.90;91.20;;;;;;5086650;28;19921;-77
2022/06/04 13:53:26;;;;;;;;;;;30.10;80.90;;;;;;5091346;28;19935;-77
2022/06/04 13:55:54;;;;;;;;;;;32.10;75.60;;;;;;5093413;28;19908;-77
2022/06/04 13:58:28;;;;;;;;;;;33.00;76.90;;;;;;5093230;28;19956;-77
2022/06/04 14:01:07;;;;;;;;;;;32.30;73.70;;;;;;5080522;28;19914;-77
2022/06/04 14:03:34;;;;;;;;;;;32.90;75.60;;;;;;5091860;28;19919;-79
2022/06/04 14:06:00;;;;;;;;;;;32.30;73.40;;;;;;5092813;28;19999;-78
2022/06/04 14:08:28;;;;;;;;;;;32.40;67.60;;;;;;5092542;28;19947;-78
2022/06/04 14:10:57;;;;;;;;;;;32.90;69.00;;;;;;5092570;28;19916;-78
2022/06/04 14:13:34;;;;;;;;;;;32.20;70.40;;;;;;5091720;28;19914;-77
2022/06/04 14:16:09;;;;;;;;;;;33.60;69.50;;;;;;5092700;28;19917;-77
2022/06/04 14:18:53;;;;;;;;;;;33.00;69.30;;;;;;5092689;28;20379;-77
2022/06/04 14:21:29;;;;;;;;;;;32.00;68.80;;;;;;5091893;28;19913;-78
2022/06/04 14:23:54;;;;;;;;;;;32.80;67.50;;;;;;5090473;28;19912;-77
2022/06/04 14:26:25;;;;;;;;;;;33.70;70.20;;;;;;5091866;28;19919;-77
2022/06/04 14:28:57;;;;;;;;;;;33.30;66.00;;;;;;5076101;28;20269;-77
2022/06/04 14:31:41;;;;;;;;;;;32.30;70.60;;;;;;5078778;28;19919;-77
2022/06/04 14:34:07;;;;;;;;;;;33.00;68.80;;;;;;5072234;28;19999;-77
2022/06/04 14:36:33;;;;;;;;;;;30.10;74.50;;;;;;5072574;28;19947;-77
2022/06/04 14:38:59;;;;;;;;;;;31.40;70.70;;;;;;5072775;28;20395;-77
2022/06/04 14:41:40;;;;;;;;;;;32.00;70.30;;;;;;5072292;28;19916;-77
2022/06/04 14:44:14;;;;;;;;;;;32.90;70.50;;;;;;5085242;28;20056;-77
2022/06/04 14:46:46;;;;;;;;;;;32.70;70.50;;;;;;5092005;28;19908;-77
2022/06/04 14:49:30;;;;;;;;;;;30.40;74.20;;;;;;5091894;28;19962;-77